sensor_id;sensor_type;location;lat;lon;timestamp;temperature;humidity
17599;DHT22;8918;52.092;5.232;2023-03-01T00:01:08;0.20;99.90
17599;DHT22;8918;52.092;5.232;2023-03-01T00:03:34;0.20;99.90
17599;DHT22;8918;52.092;5.232;2023-03-01T00:06:01;0.20;99.90
17599;DHT22;8918;52.092;5.232;2023-03-01T00:08:27;0.20;99.90
17599;DHT22;8918;52.092;5.232;2023-03-01T00:11:08;0.10;99.90
17599;DHT22;8918;52.092;5.232;2023-03-01T00:13:35;0.10;99.90
17599;DHT22;8918;52.092;5.232;2023-03-01T00:16:06;0.10;99.90
17599;DHT22;8918;52.092;5.232;2023-03-01T00:18:32;0.10;99.90
17599;DHT22;8918;52.092;5.232;2023-03-01T00:20:57;0.10;99.90
17599;DHT22;8918;52.092;5.232;2023-03-01T00:23:23;0.10;99.90
17599;DHT22;8918;52.092;5.232;2023-03-01T00:25:50;0.10;99.90
17599;DHT22;8918;52.092;5.232;2023-03-01T00:28:16;0.10;99.90
17599;DHT22;8918;52.092;5.232;2023-03-01T00:30:42;0.10;99.90
17599;DHT22;8918;52.092;5.232;2023-03-01T00:33:07;0.10;99.90
17599;DHT22;8918;52.092;5.232;2023-03-01T00:35:33;0.10;99.90
17599;DHT22;8918;52.092;5.232;2023-03-01T00:38:00;0.20;99.90
17599;DHT22;8918;52.092;5.232;2023-03-01T00:40:27;0.10;99.90
17599;DHT22;8918;52.092;5.232;2023-03-01T00:42:53;0.10;99.90
17599;DHT22;8918;52.092;5.232;2023-03-01T00:45:19;0.10;99.90
17599;DHT22;8918;52.092;5.232;2023-03-01T00:47:44;0.00;99.90
17599;DHT22;8918;52.092;5.232;2023-03-01T00:50:11;0.00;99.90
17599;DHT22;8918;52.092;5.232;2023-03-01T00:52:37;0.00;99.90
17599;DHT22;8918;52.092;5.232;2023-03-01T00:55:04;0.00;99.90
17599;DHT22;8918;52.092;5.232;2023-03-01T00:57:30;-0.10;99.90
17599;DHT22;8918;52.092;5.232;2023-03-01T00:59:56;-0.10;99.90
17599;DHT22;8918;52.092;5.232;2023-03-01T01:02:22;-0.10;99.90
17599;DHT22;8918;52.092;5.232;2023-03-01T01:04:48;0.00;99.90
17599;DHT22;8918;52.092;5.232;2023-03-01T01:07:14;0.00;99.90
17599;DHT22;8918;52.092;5.232;2023-03-01T01:09:40;-0.10;99.90
17599;DHT22;8918;52.092;5.232;2023-03-01T01:12:05;-0.10;99.90
17599;DHT22;8918;52.092;5.232;2023-03-01T01:14:31;-0.10;99.90
17599;DHT22;8918;52.092;5.232;2023-03-01T01:16:57;-0.10;99.90
17599;DHT22;8918;52.092;5.232;2023-03-01T01:19:23;-0.10;99.90
17599;DHT22;8918;52.092;5.232;2023-03-01T01:21:49;-0.10;99.90
17599;DHT22;8918;52.092;5.232;2023-03-01T01:24:15;-0.10;99.90
17599;DHT22;8918;52.092;5.232;2023-03-01T01:26:42;-0.10;99.90
17599;DHT22;8918;52.092;5.232;2023-03-01T01:29:09;-0.10;99.90
17599;DHT22;8918;52.092;5.232;2023-03-01T01:31:36;-0.10;99.90
17599;DHT22;8918;52.092;5.232;2023-03-01T01:34:04;-0.20;99.90
17599;DHT22;8918;52.092;5.232;2023-03-01T01:36:30;-0.20;99.90
17599;DHT22;8918;52.092;5.232;2023-03-01T01:38:56;-0.20;99.90
17599;DHT22;8918;52.092;5.232;2023-03-01T01:41:23;-0.20;99.90
17599;DHT22;8918;52.092;5.232;2023-03-01T01:49:22;-0.30;99.90
17599;DHT22;8918;52.092;5.232;2023-03-01T01:51:53;-0.40;99.90
17599;DHT22;8918;52.092;5.232;2023-03-01T01:54:25;-0.40;99.90
17599;DHT22;8918;52.092;5.232;2023-03-01T01:56:56;-0.40;99.90
17599;DHT22;8918;52.092;5.232;2023-03-01T01:59:24;-0.40;99.90
17599;DHT22;8918;52.092;5.232;2023-03-01T02:01:52;-0.50;99.90
17599;DHT22;8918;52.092;5.232;2023-03-01T02:04:18;-0.50;99.90
17599;DHT22;8918;52.092;5.232;2023-03-01T02:06:49;-0.50;99.90
17599;DHT22;8918;52.092;5.232;2023-03-01T02:09:18;-0.60;99.90
17599;DHT22;8918;52.092;5.232;2023-03-01T02:11:44;-0.60;99.90
17599;DHT22;8918;52.092;5.232;2023-03-01T02:14:10;-0.60;99.90
17599;DHT22;8918;52.092;5.232;2023-03-01T02:16:35;-0.70;99.90
17599;DHT22;8918;52.092;5.232;2023-03-01T02:19:03;-0.70;99.90
17599;DHT22;8918;52.092;5.232;2023-03-01T02:23:56;-0.70;99.90
17599;DHT22;8918;52.092;5.232;2023-03-01T02:26:34;-0.80;99.90
17599;DHT22;8918;52.092;5.232;2023-03-01T02:29:02;-0.80;99.90
17599;DHT22;8918;52.092;5.232;2023-03-01T02:31:28;-0.80;99.90
17599;DHT22;8918;52.092;5.232;2023-03-01T02:34:15;-0.80;99.90
17599;DHT22;8918;52.092;5.232;2023-03-01T02:37:09;-0.80;99.90
17599;DHT22;8918;52.092;5.232;2023-03-01T02:39:44;-0.80;99.90
17599;DHT22;8918;52.092;5.232;2023-03-01T02:42:14;-0.90;99.90
17599;DHT22;8918;52.092;5.232;2023-03-01T02:44:42;-0.90;99.90
17599;DHT22;8918;52.092;5.232;2023-03-01T02:47:07;-1.00;99.90
17599;DHT22;8918;52.092;5.232;2023-03-01T02:49:36;-1.00;99.90
17599;DHT22;8918;52.092;5.232;2023-03-01T02:57:25;-1.00;99.90
17599;DHT22;8918;52.092;5.232;2023-03-01T02:59:57;-1.10;99.90
17599;DHT22;8918;52.092;5.232;2023-03-01T03:02:29;-1.10;99.90
17599;DHT22;8918;52.092;5.232;2023-03-01T03:05:10;-1.10;99.90
17599;DHT22;8918;52.092;5.232;2023-03-01T03:07:38;-1.10;99.90
17599;DHT22;8918;52.092;5.232;2023-03-01T03:10:06;-1.10;99.90
17599;DHT22;8918;52.092;5.232;2023-03-01T03:12:33;-1.10;99.90
17599;DHT22;8918;52.092;5.232;2023-03-01T03:14:58;-1.10;99.90
17599;DHT22;8918;52.092;5.232;2023-03-01T03:17:24;-1.10;99.90
17599;DHT22;8918;52.092;5.232;2023-03-01T03:19:50;-1.10;99.90
17599;DHT22;8918;52.092;5.232;2023-03-01T03:22:15;-1.20;99.90
17599;DHT22;8918;52.092;5.232;2023-03-01T03:24:41;-1.20;99.90
17599;DHT22;8918;52.092;5.232;2023-03-01T03:27:07;-1.20;99.90
17599;DHT22;8918;52.092;5.232;2023-03-01T03:29:33;-1.20;99.90
17599;DHT22;8918;52.092;5.232;2023-03-01T03:31:59;-1.30;99.90
17599;DHT22;8918;52.092;5.232;2023-03-01T03:34:24;-1.30;99.90
17599;DHT22;8918;52.092;5.232;2023-03-01T03:36:56;-1.40;99.90
17599;DHT22;8918;52.092;5.232;2023-03-01T03:39:28;-1.40;99.90
17599;DHT22;8918;52.092;5.232;2023-03-01T03:41:54;-1.40;99.90
17599;DHT22;8918;52.092;5.232;2023-03-01T03:44:20;-1.40;99.90
17599;DHT22;8918;52.092;5.232;2023-03-01T03:46:46;-1.50;99.90
17599;DHT22;8918;52.092;5.232;2023-03-01T03:49:11;-1.50;99.90
17599;DHT22;8918;52.092;5.232;2023-03-01T03:51:37;-1.50;99.90
17599;DHT22;8918;52.092;5.232;2023-03-01T03:54:02;-1.50;99.90
17599;DHT22;8918;52.092;5.232;2023-03-01T03:56:28;-1.50;99.90
17599;DHT22;8918;52.092;5.232;2023-03-01T03:58:54;-1.50;99.90
17599;DHT22;8918;52.092;5.232;2023-03-01T04:01:20;-1.50;99.90
17599;DHT22;8918;52.092;5.232;2023-03-01T04:03:45;-1.50;99.90
17599;DHT22;8918;52.092;5.232;2023-03-01T04:06:13;-1.60;99.90
17599;DHT22;8918;52.092;5.232;2023-03-01T04:08:39;-1.60;99.90
17599;DHT22;8918;52.092;5.232;2023-03-01T04:11:05;-1.60;99.90
17599;DHT22;8918;52.092;5.232;2023-03-01T04:13:50;-1.50;99.90
17599;DHT22;8918;52.092;5.232;2023-03-01T04:16:16;-1.60;99.90
17599;DHT22;8918;52.092;5.232;2023-03-01T04:18:43;-1.60;99.90
17599;DHT22;8918;52.092;5.232;2023-03-01T04:21:09;-1.60;99.90
17599;DHT22;8918;52.092;5.232;2023-03-01T04:23:35;-1.60;99.90
17599;DHT22;8918;52.092;5.232;2023-03-01T04:26:01;-1.60;99.90
17599;DHT22;8918;52.092;5.232;2023-03-01T04:28:31;-1.60;99.90
17599;DHT22;8918;52.092;5.232;2023-03-01T04:31:13;-1.60;99.90
17599;DHT22;8918;52.092;5.232;2023-03-01T04:33:43;-1.60;99.90
17599;DHT22;8918;52.092;5.232;2023-03-01T04:36:10;-1.60;99.90
17599;DHT22;8918;52.092;5.232;2023-03-01T04:38:39;-1.70;99.90
17599;DHT22;8918;52.092;5.232;2023-03-01T04:41:07;-1.70;99.90
17599;DHT22;8918;52.092;5.232;2023-03-01T04:43:34;-1.70;99.90
17599;DHT22;8918;52.092;5.232;2023-03-01T04:46:01;-1.80;99.90
17599;DHT22;8918;52.092;5.232;2023-03-01T04:48:29;-1.80;99.90
17599;DHT22;8918;52.092;5.232;2023-03-01T04:50:54;-1.80;99.90
17599;DHT22;8918;52.092;5.232;2023-03-01T04:53:20;-1.80;99.90
17599;DHT22;8918;52.092;5.232;2023-03-01T04:55:45;-1.90;99.90
17599;DHT22;8918;52.092;5.232;2023-03-01T04:58:11;-1.90;99.90
17599;DHT22;8918;52.092;5.232;2023-03-01T05:00:37;-1.90;99.90
17599;DHT22;8918;52.092;5.232;2023-03-01T05:03:02;-1.90;99.90
17599;DHT22;8918;52.092;5.232;2023-03-01T05:05:34;-1.90;99.90
17599;DHT22;8918;52.092;5.232;2023-03-01T05:08:02;-1.90;99.90
17599;DHT22;8918;52.092;5.232;2023-03-01T05:10:30;-1.90;99.90
17599;DHT22;8918;52.092;5.232;2023-03-01T05:12:57;-2.00;99.90
17599;DHT22;8918;52.092;5.232;2023-03-01T05:15:24;-1.90;99.90
17599;DHT22;8918;52.092;5.232;2023-03-01T05:17:54;-1.90;99.90
17599;DHT22;8918;52.092;5.232;2023-03-01T05:20:21;-2.00;99.90
17599;DHT22;8918;52.092;5.232;2023-03-01T05:22:50;-2.10;99.90
17599;DHT22;8918;52.092;5.232;2023-03-01T05:25:16;-2.10;99.90
17599;DHT22;8918;52.092;5.232;2023-03-01T05:27:42;-2.10;99.90
17599;DHT22;8918;52.092;5.232;2023-03-01T05:30:09;-2.10;99.90
17599;DHT22;8918;52.092;5.232;2023-03-01T05:32:48;-2.10;99.90
17599;DHT22;8918;52.092;5.232;2023-03-01T05:35:16;-2.20;99.90
17599;DHT22;8918;52.092;5.232;2023-03-01T05:37:43;-2.20;99.90
17599;DHT22;8918;52.092;5.232;2023-03-01T05:40:15;-2.20;99.90
17599;DHT22;8918;52.092;5.232;2023-03-01T05:42:43;-2.20;99.90
17599;DHT22;8918;52.092;5.232;2023-03-01T05:45:09;-2.20;99.90
17599;DHT22;8918;52.092;5.232;2023-03-01T05:47:35;-2.20;99.90
17599;DHT22;8918;52.092;5.232;2023-03-01T05:50:01;-2.20;99.90
17599;DHT22;8918;52.092;5.232;2023-03-01T05:52:27;-2.20;99.90
17599;DHT22;8918;52.092;5.232;2023-03-01T05:54:52;-2.20;99.90
17599;DHT22;8918;52.092;5.232;2023-03-01T05:57:18;-2.20;99.90
17599;DHT22;8918;52.092;5.232;2023-03-01T05:59:43;-2.30;99.90
17599;DHT22;8918;52.092;5.232;2023-03-01T06:02:10;-2.30;99.90
17599;DHT22;8918;52.092;5.232;2023-03-01T06:04:36;-2.30;99.90
17599;DHT22;8918;52.092;5.232;2023-03-01T06:07:01;-2.40;99.90
17599;DHT22;8918;52.092;5.232;2023-03-01T06:09:27;-2.30;99.90
17599;DHT22;8918;52.092;5.232;2023-03-01T06:11:52;-2.40;99.90
17599;DHT22;8918;52.092;5.232;2023-03-01T06:14:18;-2.40;99.90
17599;DHT22;8918;52.092;5.232;2023-03-01T06:16:43;-2.40;99.90
17599;DHT22;8918;52.092;5.232;2023-03-01T06:19:09;-2.40;99.90
17599;DHT22;8918;52.092;5.232;2023-03-01T06:21:35;-2.50;99.90
17599;DHT22;8918;52.092;5.232;2023-03-01T06:24:00;-2.50;99.90
17599;DHT22;8918;52.092;5.232;2023-03-01T06:26:26;-2.50;99.90
17599;DHT22;8918;52.092;5.232;2023-03-01T06:28:52;-2.50;99.90
17599;DHT22;8918;52.092;5.232;2023-03-01T06:31:18;-2.50;99.90
17599;DHT22;8918;52.092;5.232;2023-03-01T06:33:43;-2.50;99.90
17599;DHT22;8918;52.092;5.232;2023-03-01T06:36:10;-2.50;99.90
17599;DHT22;8918;52.092;5.232;2023-03-01T06:38:35;-2.50;99.90
17599;DHT22;8918;52.092;5.232;2023-03-01T06:41:01;-2.50;99.90
17599;DHT22;8918;52.092;5.232;2023-03-01T06:43:27;-2.50;99.90
17599;DHT22;8918;52.092;5.232;2023-03-01T06:45:52;-2.50;99.90
17599;DHT22;8918;52.092;5.232;2023-03-01T06:48:18;-2.50;99.90
17599;DHT22;8918;52.092;5.232;2023-03-01T06:50:43;-2.50;99.90
17599;DHT22;8918;52.092;5.232;2023-03-01T06:53:09;-2.40;99.90
17599;DHT22;8918;52.092;5.232;2023-03-01T06:55:35;-2.40;99.90
17599;DHT22;8918;52.092;5.232;2023-03-01T06:58:02;-2.40;99.90
17599;DHT22;8918;52.092;5.232;2023-03-01T07:00:31;-2.40;99.90
17599;DHT22;8918;52.092;5.232;2023-03-01T07:03:00;-2.40;99.90
17599;DHT22;8918;52.092;5.232;2023-03-01T07:05:27;-2.30;99.90
17599;DHT22;8918;52.092;5.232;2023-03-01T07:07:53;-2.30;99.90
17599;DHT22;8918;52.092;5.232;2023-03-01T07:10:19;-2.30;99.90
17599;DHT22;8918;52.092;5.232;2023-03-01T07:12:44;-2.30;99.90
17599;DHT22;8918;52.092;5.232;2023-03-01T07:15:11;-2.20;99.90
17599;DHT22;8918;52.092;5.232;2023-03-01T07:17:37;-2.20;99.90
17599;DHT22;8918;52.092;5.232;2023-03-01T07:20:03;-2.10;99.90
17599;DHT22;8918;52.092;5.232;2023-03-01T07:22:29;-2.10;99.90
17599;DHT22;8918;52.092;5.232;2023-03-01T07:24:54;-2.00;99.90
17599;DHT22;8918;52.092;5.232;2023-03-01T07:27:20;-2.00;99.90
17599;DHT22;8918;52.092;5.232;2023-03-01T07:29:45;-1.90;99.90
17599;DHT22;8918;52.092;5.232;2023-03-01T07:32:11;-1.80;99.90
17599;DHT22;8918;52.092;5.232;2023-03-01T07:34:37;-1.70;99.90
17599;DHT22;8918;52.092;5.232;2023-03-01T07:37:02;-1.60;99.90
17599;DHT22;8918;52.092;5.232;2023-03-01T07:39:28;-1.60;99.90
17599;DHT22;8918;52.092;5.232;2023-03-01T07:41:53;-1.50;99.90
17599;DHT22;8918;52.092;5.232;2023-03-01T07:44:19;-1.40;99.90
17599;DHT22;8918;52.092;5.232;2023-03-01T07:46:45;-1.40;99.90
17599;DHT22;8918;52.092;5.232;2023-03-01T07:49:10;-1.30;99.90
17599;DHT22;8918;52.092;5.232;2023-03-01T07:51:36;-1.20;99.90
17599;DHT22;8918;52.092;5.232;2023-03-01T07:54:02;-1.10;99.90
17599;DHT22;8918;52.092;5.232;2023-03-01T07:56:28;-1.00;99.90
17599;DHT22;8918;52.092;5.232;2023-03-01T07:58:54;-0.90;99.90
17599;DHT22;8918;52.092;5.232;2023-03-01T08:01:20;-0.90;99.90
17599;DHT22;8918;52.092;5.232;2023-03-01T08:03:47;-0.80;99.90
17599;DHT22;8918;52.092;5.232;2023-03-01T08:06:14;-0.70;99.90
17599;DHT22;8918;52.092;5.232;2023-03-01T08:08:40;-0.60;99.90
17599;DHT22;8918;52.092;5.232;2023-03-01T08:11:08;-0.50;99.90
17599;DHT22;8918;52.092;5.232;2023-03-01T08:13:35;-0.40;99.90
17599;DHT22;8918;52.092;5.232;2023-03-01T08:16:20;-0.30;99.90
17599;DHT22;8918;52.092;5.232;2023-03-01T08:18:46;-0.20;99.90
17599;DHT22;8918;52.092;5.232;2023-03-01T08:21:17;-0.10;99.90
17599;DHT22;8918;52.092;5.232;2023-03-01T08:23:43;0.00;99.90
17599;DHT22;8918;52.092;5.232;2023-03-01T08:26:09;0.20;99.90
17599;DHT22;8918;52.092;5.232;2023-03-01T08:28:37;0.20;99.90
17599;DHT22;8918;52.092;5.232;2023-03-01T08:31:04;0.30;99.90
17599;DHT22;8918;52.092;5.232;2023-03-01T08:33:37;0.50;99.90
17599;DHT22;8918;52.092;5.232;2023-03-01T08:36:05;0.50;99.90
17599;DHT22;8918;52.092;5.232;2023-03-01T08:38:32;0.70;99.90
17599;DHT22;8918;52.092;5.232;2023-03-01T08:41:03;0.80;99.90
17599;DHT22;8918;52.092;5.232;2023-03-01T08:43:29;0.90;99.90
17599;DHT22;8918;52.092;5.232;2023-03-01T08:45:55;1.00;99.90
17599;DHT22;8918;52.092;5.232;2023-03-01T08:48:20;1.10;99.90
17599;DHT22;8918;52.092;5.232;2023-03-01T08:50:46;1.20;99.90
17599;DHT22;8918;52.092;5.232;2023-03-01T08:53:12;1.40;99.90
17599;DHT22;8918;52.092;5.232;2023-03-01T08:55:37;1.50;99.90
17599;DHT22;8918;52.092;5.232;2023-03-01T08:58:03;1.70;99.90
17599;DHT22;8918;52.092;5.232;2023-03-01T09:00:29;1.80;99.90
17599;DHT22;8918;52.092;5.232;2023-03-01T09:02:55;1.90;99.90
17599;DHT22;8918;52.092;5.232;2023-03-01T09:05:21;2.00;99.90
17599;DHT22;8918;52.092;5.232;2023-03-01T09:07:46;2.20;99.90
17599;DHT22;8918;52.092;5.232;2023-03-01T09:10:12;2.40;99.90
17599;DHT22;8918;52.092;5.232;2023-03-01T09:12:37;2.60;99.90
17599;DHT22;8918;52.092;5.232;2023-03-01T09:15:03;2.80;99.90
17599;DHT22;8918;52.092;5.232;2023-03-01T09:17:29;2.90;99.90
17599;DHT22;8918;52.092;5.232;2023-03-01T09:19:55;3.10;99.90
17599;DHT22;8918;52.092;5.232;2023-03-01T09:22:20;3.30;99.90
17599;DHT22;8918;52.092;5.232;2023-03-01T09:24:46;3.50;99.90
17599;DHT22;8918;52.092;5.232;2023-03-01T09:27:11;3.60;99.90
17599;DHT22;8918;52.092;5.232;2023-03-01T09:29:38;3.90;99.90
17599;DHT22;8918;52.092;5.232;2023-03-01T09:32:03;4.10;99.90
17599;DHT22;8918;52.092;5.232;2023-03-01T09:34:29;4.20;99.90
17599;DHT22;8918;52.092;5.232;2023-03-01T09:36:56;4.30;99.90
17599;DHT22;8918;52.092;5.232;2023-03-01T09:39:22;4.50;99.90
17599;DHT22;8918;52.092;5.232;2023-03-01T09:42:02;4.80;99.90
17599;DHT22;8918;52.092;5.232;2023-03-01T09:44:57;4.90;99.90
17599;DHT22;8918;52.092;5.232;2023-03-01T09:47:35;5.40;99.90
17599;DHT22;8918;52.092;5.232;2023-03-01T09:50:18;6.00;99.90
17599;DHT22;8918;52.092;5.232;2023-03-01T09:52:52;6.70;99.90
17599;DHT22;8918;52.092;5.232;2023-03-01T09:55:27;7.70;99.90
17599;DHT22;8918;52.092;5.232;2023-03-01T09:58:18;8.50;99.90
17599;DHT22;8918;52.092;5.232;2023-03-01T10:00:49;9.10;99.90
17599;DHT22;8918;52.092;5.232;2023-03-01T10:06:04;8.60;99.90
17599;DHT22;8918;52.092;5.232;2023-03-01T10:08:40;8.00;99.90
17599;DHT22;8918;52.092;5.232;2023-03-01T10:11:34;7.70;99.90
17599;DHT22;8918;52.092;5.232;2023-03-01T10:14:23;7.50;99.90
17599;DHT22;8918;52.092;5.232;2023-03-01T10:17:15;7.60;99.90
17599;DHT22;8918;52.092;5.232;2023-03-01T10:19:46;7.50;99.90
17599;DHT22;8918;52.092;5.232;2023-03-01T10:22:28;7.50;99.90
17599;DHT22;8918;52.092;5.232;2023-03-01T10:24:58;7.40;99.90
17599;DHT22;8918;52.092;5.232;2023-03-01T10:30:45;7.60;99.90
17599;DHT22;8918;52.092;5.232;2023-03-01T10:33:23;7.80;99.90
17599;DHT22;8918;52.092;5.232;2023-03-01T10:35:49;8.10;99.90
17599;DHT22;8918;52.092;5.232;2023-03-01T10:38:16;9.10;99.90
17599;DHT22;8918;52.092;5.232;2023-03-01T10:40:59;10.90;99.90
17599;DHT22;8918;52.092;5.232;2023-03-01T10:43:45;12.80;99.90
17599;DHT22;8918;52.092;5.232;2023-03-01T10:46:24;14.10;97.90
17599;DHT22;8918;52.092;5.232;2023-03-01T10:49:19;14.30;95.60
17599;DHT22;8918;52.092;5.232;2023-03-01T10:51:47;15.10;93.60
17599;DHT22;8918;52.092;5.232;2023-03-01T10:54:27;15.50;92.60
17599;DHT22;8918;52.092;5.232;2023-03-01T10:56:55;15.80;91.80
17599;DHT22;8918;52.092;5.232;2023-03-01T10:59:34;16.30;90.90
17599;DHT22;8918;52.092;5.232;2023-03-01T11:02:27;16.40;90.50
17599;DHT22;8918;52.092;5.232;2023-03-01T11:05:13;16.90;90.10
17599;DHT22;8918;52.092;5.232;2023-03-01T11:07:55;16.30;89.10
17599;DHT22;8918;52.092;5.232;2023-03-01T11:12:47;16.10;88.50
17599;DHT22;8918;52.092;5.232;2023-03-01T11:15:39;16.00;86.50
17599;DHT22;8918;52.092;5.232;2023-03-01T11:18:21;16.00;86.00
17599;DHT22;8918;52.092;5.232;2023-03-01T11:20:48;15.60;87.70
17599;DHT22;8918;52.092;5.232;2023-03-01T11:23:16;15.90;88.80
17599;DHT22;8918;52.092;5.232;2023-03-01T11:25:46;16.20;87.40
17599;DHT22;8918;52.092;5.232;2023-03-01T11:28:16;16.30;86.50
17599;DHT22;8918;52.092;5.232;2023-03-01T11:31:02;16.00;86.90
17599;DHT22;8918;52.092;5.232;2023-03-01T11:36:20;15.00;86.80
17599;DHT22;8918;52.092;5.232;2023-03-01T11:38:50;14.80;87.10
17599;DHT22;8918;52.092;5.232;2023-03-01T11:41:18;15.20;87.60
17599;DHT22;8918;52.092;5.232;2023-03-01T11:49:43;15.90;83.80
17599;DHT22;8918;52.092;5.232;2023-03-01T11:52:33;16.00;82.10
17599;DHT22;8918;52.092;5.232;2023-03-01T11:55:36;16.10;82.80
17599;DHT22;8918;52.092;5.232;2023-03-01T12:04:12;16.30;81.20
17599;DHT22;8918;52.092;5.232;2023-03-01T12:09:38;16.90;80.10
17599;DHT22;8918;52.092;5.232;2023-03-01T12:20:38;17.70;79.70
17599;DHT22;8918;52.092;5.232;2023-03-01T12:23:33;17.40;76.90
17599;DHT22;8918;52.092;5.232;2023-03-01T12:29:14;18.00;75.60
17599;DHT22;8918;52.092;5.232;2023-03-01T12:37:34;18.00;76.70
17599;DHT22;8918;52.092;5.232;2023-03-01T12:40:28;17.90;75.00
17599;DHT22;8918;52.092;5.232;2023-03-01T12:45:57;17.10;76.90
17599;DHT22;8918;52.092;5.232;2023-03-01T12:51:24;16.20;76.70
17599;DHT22;8918;52.092;5.232;2023-03-01T12:53:53;16.00;77.90
17599;DHT22;8918;52.092;5.232;2023-03-01T12:56:35;15.70;78.30
17599;DHT22;8918;52.092;5.232;2023-03-01T13:01:49;15.30;80.10
17599;DHT22;8918;52.092;5.232;2023-03-01T13:17:49;14.10;80.80
17599;DHT22;8918;52.092;5.232;2023-03-01T13:20:18;14.30;82.30
17599;DHT22;8918;52.092;5.232;2023-03-01T13:22:46;14.50;81.70
17599;DHT22;8918;52.092;5.232;2023-03-01T13:25:19;14.60;80.70
17599;DHT22;8918;52.092;5.232;2023-03-01T13:27:46;15.10;79.70
17599;DHT22;8918;52.092;5.232;2023-03-01T13:35:57;15.20;80.30
17599;DHT22;8918;52.092;5.232;2023-03-01T13:38:46;14.80;80.90
17599;DHT22;8918;52.092;5.232;2023-03-01T13:44:00;13.80;81.60
17599;DHT22;8918;52.092;5.232;2023-03-01T13:46:26;13.60;81.50
17599;DHT22;8918;52.092;5.232;2023-03-01T13:48:55;13.60;82.70
17599;DHT22;8918;52.092;5.232;2023-03-01T13:51:26;13.80;82.50
17599;DHT22;8918;52.092;5.232;2023-03-01T13:53:54;13.50;82.60
17599;DHT22;8918;52.092;5.232;2023-03-01T13:56:36;13.40;83.00
17599;DHT22;8918;52.092;5.232;2023-03-01T13:59:14;13.30;84.60
17599;DHT22;8918;52.092;5.232;2023-03-01T14:01:40;13.20;83.40
17599;DHT22;8918;52.092;5.232;2023-03-01T14:04:35;13.10;82.00
17599;DHT22;8918;52.092;5.232;2023-03-01T14:07:19;13.20;82.30
17599;DHT22;8918;52.092;5.232;2023-03-01T14:09:47;13.90;81.80
17599;DHT22;8918;52.092;5.232;2023-03-01T14:12:16;14.60;80.30
17599;DHT22;8918;52.092;5.232;2023-03-01T14:14:55;15.10;78.80
17599;DHT22;8918;52.092;5.232;2023-03-01T14:19:56;15.40;77.20
17599;DHT22;8918;52.092;5.232;2023-03-01T14:22:33;15.10;79.20
17599;DHT22;8918;52.092;5.232;2023-03-01T14:25:02;14.50;79.80
17599;DHT22;8918;52.092;5.232;2023-03-01T14:27:38;13.90;81.90
17599;DHT22;8918;52.092;5.232;2023-03-01T14:32:38;12.50;84.70
17599;DHT22;8918;52.092;5.232;2023-03-01T14:35:20;12.30;85.40
17599;DHT22;8918;52.092;5.232;2023-03-01T14:37:45;12.10;85.60
17599;DHT22;8918;52.092;5.232;2023-03-01T14:40:21;11.70;85.50
17599;DHT22;8918;52.092;5.232;2023-03-01T14:42:48;11.60;87.20
17599;DHT22;8918;52.092;5.232;2023-03-01T14:45:14;11.30;87.80
17599;DHT22;8918;52.092;5.232;2023-03-01T14:47:40;11.10;88.00
17599;DHT22;8918;52.092;5.232;2023-03-01T14:50:19;10.90;88.40
17599;DHT22;8918;52.092;5.232;2023-03-01T14:52:47;10.60;86.70
17599;DHT22;8918;52.092;5.232;2023-03-01T14:55:19;10.50;87.30
17599;DHT22;8918;52.092;5.232;2023-03-01T14:57:50;10.40;88.50
17599;DHT22;8918;52.092;5.232;2023-03-01T15:00:20;10.40;89.30
17599;DHT22;8918;52.092;5.232;2023-03-01T15:02:48;10.50;89.70
17599;DHT22;8918;52.092;5.232;2023-03-01T15:05:15;10.60;90.00
17599;DHT22;8918;52.092;5.232;2023-03-01T15:07:42;10.80;90.10
17599;DHT22;8918;52.092;5.232;2023-03-01T15:10:23;10.90;89.40
17599;DHT22;8918;52.092;5.232;2023-03-01T15:12:49;10.70;88.70
17599;DHT22;8918;52.092;5.232;2023-03-01T15:15:33;10.40;88.90
17599;DHT22;8918;52.092;5.232;2023-03-01T15:18:01;10.20;90.10
17599;DHT22;8918;52.092;5.232;2023-03-01T15:20:28;10.10;90.40
17599;DHT22;8918;52.092;5.232;2023-03-01T15:22:56;10.10;90.60
17599;DHT22;8918;52.092;5.232;2023-03-01T15:25:25;10.20;90.70
17599;DHT22;8918;52.092;5.232;2023-03-01T15:27:52;10.30;90.20
17599;DHT22;8918;52.092;5.232;2023-03-01T15:30:31;10.30;90.10
17599;DHT22;8918;52.092;5.232;2023-03-01T15:33:27;10.50;89.40
17599;DHT22;8918;52.092;5.232;2023-03-01T15:35:56;10.40;88.80
17599;DHT22;8918;52.092;5.232;2023-03-01T15:38:36;10.40;89.10
17599;DHT22;8918;52.092;5.232;2023-03-01T15:41:27;10.30;89.80
17599;DHT22;8918;52.092;5.232;2023-03-01T15:43:53;10.20;90.10
17599;DHT22;8918;52.092;5.232;2023-03-01T15:46:30;9.90;90.40
17599;DHT22;8918;52.092;5.232;2023-03-01T15:48:59;9.70;90.40
17599;DHT22;8918;52.092;5.232;2023-03-01T15:51:43;9.60;90.20
17599;DHT22;8918;52.092;5.232;2023-03-01T15:54:17;9.50;90.40
17599;DHT22;8918;52.092;5.232;2023-03-01T15:56:44;9.40;90.60
17599;DHT22;8918;52.092;5.232;2023-03-01T15:59:11;9.40;90.80
17599;DHT22;8918;52.092;5.232;2023-03-01T16:01:43;9.20;91.10
17599;DHT22;8918;52.092;5.232;2023-03-01T16:04:14;9.10;91.60
17599;DHT22;8918;52.092;5.232;2023-03-01T16:06:46;9.00;92.00
17599;DHT22;8918;52.092;5.232;2023-03-01T16:09:12;9.00;92.60
17599;DHT22;8918;52.092;5.232;2023-03-01T16:11:38;8.90;93.00
17599;DHT22;8918;52.092;5.232;2023-03-01T16:14:05;8.80;93.10
17599;DHT22;8918;52.092;5.232;2023-03-01T16:16:31;8.80;93.60
17599;DHT22;8918;52.092;5.232;2023-03-01T16:18:56;8.70;93.70
17599;DHT22;8918;52.092;5.232;2023-03-01T16:21:24;8.60;93.50
17599;DHT22;8918;52.092;5.232;2023-03-01T16:23:50;8.50;93.50
17599;DHT22;8918;52.092;5.232;2023-03-01T16:26:16;8.40;93.60
17599;DHT22;8918;52.092;5.232;2023-03-01T16:28:44;8.30;93.80
17599;DHT22;8918;52.092;5.232;2023-03-01T16:31:10;8.20;94.00
17599;DHT22;8918;52.092;5.232;2023-03-01T16:33:36;8.10;93.90
17599;DHT22;8918;52.092;5.232;2023-03-01T16:36:09;8.10;94.30
17599;DHT22;8918;52.092;5.232;2023-03-01T16:38:35;8.00;94.60
17599;DHT22;8918;52.092;5.232;2023-03-01T16:41:01;7.90;94.60
17599;DHT22;8918;52.092;5.232;2023-03-01T16:43:27;7.90;94.60
17599;DHT22;8918;52.092;5.232;2023-03-01T16:45:53;7.80;94.80
17599;DHT22;8918;52.092;5.232;2023-03-01T16:48:18;7.80;95.10
17599;DHT22;8918;52.092;5.232;2023-03-01T16:50:44;7.70;95.30
17599;DHT22;8918;52.092;5.232;2023-03-01T16:53:10;7.70;95.30
17599;DHT22;8918;52.092;5.232;2023-03-01T16:55:35;7.60;95.60
17599;DHT22;8918;52.092;5.232;2023-03-01T16:58:02;7.60;95.70
17599;DHT22;8918;52.092;5.232;2023-03-01T17:00:28;7.50;95.60
17599;DHT22;8918;52.092;5.232;2023-03-01T17:02:54;7.50;95.80
17599;DHT22;8918;52.092;5.232;2023-03-01T17:05:19;7.40;96.10
17599;DHT22;8918;52.092;5.232;2023-03-01T17:07:47;7.30;96.00
17599;DHT22;8918;52.092;5.232;2023-03-01T17:10:13;7.30;96.20
17599;DHT22;8918;52.092;5.232;2023-03-01T17:12:38;7.20;96.20
17599;DHT22;8918;52.092;5.232;2023-03-01T17:15:05;7.10;96.30
17599;DHT22;8918;52.092;5.232;2023-03-01T17:17:32;7.00;96.70
17599;DHT22;8918;52.092;5.232;2023-03-01T17:19:57;7.00;96.90
17599;DHT22;8918;52.092;5.232;2023-03-01T17:22:24;6.90;96.80
17599;DHT22;8918;52.092;5.232;2023-03-01T17:24:50;6.90;97.10
17599;DHT22;8918;52.092;5.232;2023-03-01T17:27:15;6.80;97.30
17599;DHT22;8918;52.092;5.232;2023-03-01T17:29:42;6.80;97.20
17599;DHT22;8918;52.092;5.232;2023-03-01T17:32:08;6.80;97.70
17599;DHT22;8918;52.092;5.232;2023-03-01T17:34:34;6.70;97.70
17599;DHT22;8918;52.092;5.232;2023-03-01T17:36:59;6.70;98.00